Terminal Aerodrome Forecast
Issued by NWS Paducah, KY

Home | Current Version | Previous Version | Text Only | Print | Product List | Glossary Off
Versions: 1 2 3 4 5 6 7 8 9 10 11 12 13

852
FTUS43 KPAH 231326 AAA
TAFEVV
TAF AMD
KEVV 231326Z 2313/2412 07006KT P6SM OVC100
      TEMPO 2314/2318 6SM -SHRA BR BKN060
     FM231800 14007KT P6SM BKN100
     FM240200 17012G18KT P6SM BKN200
     FM240900 18012G20KT P6SM SCT015=

USA.gov is the U.S. government's official web portal to all federal, state and local government web resources and services.